sensor_id;sensor_type;location;lat;lon;timestamp;P1;durP1;ratioP1;P2;durP2;ratioP2
49384;SDS011;36795;45.028;38.968;2023-03-31T00:00:54;11.65;;;3.30;;
49384;SDS011;36795;45.028;38.968;2023-03-31T00:03:42;14.45;;;3.97;;
49384;SDS011;36795;45.028;38.968;2023-03-31T00:06:28;12.05;;;3.47;;
49384;SDS011;36795;45.028;38.968;2023-03-31T00:09:16;12.00;;;4.00;;
49384;SDS011;36795;45.028;38.968;2023-03-31T00:12:06;16.23;;;3.92;;
49384;SDS011;36795;45.028;38.968;2023-03-31T00:14:52;11.02;;;3.50;;
49384;SDS011;36795;45.028;38.968;2023-03-31T00:17:38;17.83;;;3.87;;
49384;SDS011;36795;45.028;38.968;2023-03-31T00:20:25;13.93;;;3.67;;
49384;SDS011;36795;45.028;38.968;2023-03-31T00:23:11;15.63;;;4.25;;
49384;SDS011;36795;45.028;38.968;2023-03-31T00:25:59;13.62;;;3.78;;
49384;SDS011;36795;45.028;38.968;2023-03-31T00:28:45;12.45;;;3.80;;
49384;SDS011;36795;45.028;38.968;2023-03-31T00:31:31;15.00;;;3.60;;
49384;SDS011;36795;45.028;38.968;2023-03-31T00:34:17;14.75;;;4.20;;
49384;SDS011;36795;45.028;38.968;2023-03-31T00:37:04;17.17;;;3.67;;
49384;SDS011;36795;45.028;38.968;2023-03-31T00:39:50;17.77;;;3.97;;
49384;SDS011;36795;45.028;38.968;2023-03-31T00:42:40;12.95;;;3.80;;
49384;SDS011;36795;45.028;38.968;2023-03-31T00:45:29;19.08;;;3.70;;
49384;SDS011;36795;45.028;38.968;2023-03-31T00:48:16;14.25;;;3.62;;
49384;SDS011;36795;45.028;38.968;2023-03-31T00:51:04;10.77;;;3.37;;
49384;SDS011;36795;45.028;38.968;2023-03-31T00:53:55;12.90;;;3.37;;
49384;SDS011;36795;45.028;38.968;2023-03-31T00:56:43;14.68;;;3.60;;
49384;SDS011;36795;45.028;38.968;2023-03-31T00:59:33;15.90;;;3.97;;
49384;SDS011;36795;45.028;38.968;2023-03-31T01:02:21;17.48;;;4.28;;
49384;SDS011;36795;45.028;38.968;2023-03-31T01:05:11;16.08;;;4.30;;
49384;SDS011;36795;45.028;38.968;2023-03-31T01:07:58;19.98;;;4.55;;
49384;SDS011;36795;45.028;38.968;2023-03-31T01:10:47;18.73;;;5.00;;
49384;SDS011;36795;45.028;38.968;2023-03-31T01:13:35;18.40;;;4.75;;
49384;SDS011;36795;45.028;38.968;2023-03-31T01:16:22;19.50;;;5.45;;
49384;SDS011;36795;45.028;38.968;2023-03-31T01:19:11;19.45;;;5.05;;
49384;SDS011;36795;45.028;38.968;2023-03-31T01:25:22;15.27;;;3.87;;
49384;SDS011;36795;45.028;38.968;2023-03-31T01:31:10;21.87;;;4.25;;
49384;SDS011;36795;45.028;38.968;2023-03-31T01:34:12;10.50;;;2.92;;
49384;SDS011;36795;45.028;38.968;2023-03-31T01:48:21;7.30;;;2.12;;
49384;SDS011;36795;45.028;38.968;2023-03-31T01:51:33;5.00;;;1.97;;
49384;SDS011;36795;45.028;38.968;2023-03-31T01:57:17;10.30;;;2.35;;
49384;SDS011;36795;45.028;38.968;2023-03-31T02:00:07;7.80;;;2.17;;
49384;SDS011;36795;45.028;38.968;2023-03-31T02:03:04;8.50;;;2.60;;
49384;SDS011;36795;45.028;38.968;2023-03-31T02:05:56;8.65;;;2.00;;
49384;SDS011;36795;45.028;38.968;2023-03-31T02:08:44;7.15;;;2.22;;
49384;SDS011;36795;45.028;38.968;2023-03-31T02:11:32;9.85;;;2.28;;
49384;SDS011;36795;45.028;38.968;2023-03-31T02:14:20;12.23;;;2.50;;
49384;SDS011;36795;45.028;38.968;2023-03-31T02:17:09;6.22;;;2.25;;
49384;SDS011;36795;45.028;38.968;2023-03-31T02:20:00;5.15;;;1.98;;
49384;SDS011;36795;45.028;38.968;2023-03-31T02:22:51;11.23;;;2.58;;
49384;SDS011;36795;45.028;38.968;2023-03-31T02:25:49;9.75;;;2.37;;
49384;SDS011;36795;45.028;38.968;2023-03-31T02:28:36;9.10;;;2.47;;
49384;SDS011;36795;45.028;38.968;2023-03-31T02:34:10;9.40;;;2.62;;
49384;SDS011;36795;45.028;38.968;2023-03-31T02:36:57;17.27;;;3.25;;
49384;SDS011;36795;45.028;38.968;2023-03-31T02:39:43;8.32;;;2.58;;
49384;SDS011;36795;45.028;38.968;2023-03-31T02:42:31;7.75;;;2.40;;
49384;SDS011;36795;45.028;38.968;2023-03-31T02:48:26;9.10;;;2.28;;
49384;SDS011;36795;45.028;38.968;2023-03-31T02:57:18;6.35;;;2.30;;
49384;SDS011;36795;45.028;38.968;2023-03-31T03:00:11;8.73;;;2.37;;
49384;SDS011;36795;45.028;38.968;2023-03-31T03:03:07;6.68;;;2.20;;
49384;SDS011;36795;45.028;38.968;2023-03-31T03:17:46;6.35;;;1.65;;
49384;SDS011;36795;45.028;38.968;2023-03-31T03:20:33;9.57;;;2.28;;
49384;SDS011;36795;45.028;38.968;2023-03-31T03:23:20;12.13;;;2.03;;
49384;SDS011;36795;45.028;38.968;2023-03-31T03:26:06;16.33;;;4.00;;
49384;SDS011;36795;45.028;38.968;2023-03-31T03:28:53;11.10;;;3.00;;
49384;SDS011;36795;45.028;38.968;2023-03-31T03:31:40;5.40;;;1.70;;
49384;SDS011;36795;45.028;38.968;2023-03-31T03:34:27;8.77;;;2.03;;
49384;SDS011;36795;45.028;38.968;2023-03-31T03:37:13;5.40;;;1.90;;
49384;SDS011;36795;45.028;38.968;2023-03-31T03:39:59;2.60;;;1.52;;
49384;SDS011;36795;45.028;38.968;2023-03-31T03:42:45;14.60;;;3.15;;
49384;SDS011;36795;45.028;38.968;2023-03-31T03:45:32;9.15;;;1.80;;
49384;SDS011;36795;45.028;38.968;2023-03-31T03:48:18;5.50;;;1.77;;
49384;SDS011;36795;45.028;38.968;2023-03-31T03:51:04;8.88;;;2.10;;
49384;SDS011;36795;45.028;38.968;2023-03-31T03:53:51;4.68;;;2.10;;
49384;SDS011;36795;45.028;38.968;2023-03-31T03:56:37;13.62;;;2.50;;
49384;SDS011;36795;45.028;38.968;2023-03-31T03:59:23;9.88;;;1.92;;
49384;SDS011;36795;45.028;38.968;2023-03-31T04:02:10;6.03;;;1.90;;
49384;SDS011;36795;45.028;38.968;2023-03-31T04:04:56;11.95;;;1.92;;
49384;SDS011;36795;45.028;38.968;2023-03-31T04:07:42;8.70;;;1.65;;
49384;SDS011;36795;45.028;38.968;2023-03-31T04:10:29;8.73;;;2.05;;
49384;SDS011;36795;45.028;38.968;2023-03-31T04:13:15;6.32;;;1.90;;
49384;SDS011;36795;45.028;38.968;2023-03-31T04:16:01;20.25;;;5.40;;
49384;SDS011;36795;45.028;38.968;2023-03-31T04:18:47;9.15;;;1.77;;
49384;SDS011;36795;45.028;38.968;2023-03-31T04:21:34;4.35;;;1.67;;
49384;SDS011;36795;45.028;38.968;2023-03-31T04:24:20;5.32;;;2.12;;
49384;SDS011;36795;45.028;38.968;2023-03-31T04:27:07;3.45;;;1.52;;
49384;SDS011;36795;45.028;38.968;2023-03-31T04:29:53;8.85;;;2.40;;
49384;SDS011;36795;45.028;38.968;2023-03-31T04:32:40;5.07;;;1.30;;
49384;SDS011;36795;45.028;38.968;2023-03-31T04:35:27;7.32;;;1.98;;
49384;SDS011;36795;45.028;38.968;2023-03-31T04:38:33;6.40;;;1.70;;
49384;SDS011;36795;45.028;38.968;2023-03-31T04:41:20;3.70;;;1.85;;
49384;SDS011;36795;45.028;38.968;2023-03-31T04:44:07;9.80;;;1.90;;
49384;SDS011;36795;45.028;38.968;2023-03-31T04:46:53;11.00;;;2.15;;
49384;SDS011;36795;45.028;38.968;2023-03-31T04:49:39;4.85;;;1.77;;
49384;SDS011;36795;45.028;38.968;2023-03-31T04:52:25;6.22;;;1.42;;
49384;SDS011;36795;45.028;38.968;2023-03-31T04:55:12;40.88;;;5.70;;
49384;SDS011;36795;45.028;38.968;2023-03-31T04:57:58;8.32;;;2.10;;
49384;SDS011;36795;45.028;38.968;2023-03-31T05:00:44;5.90;;;1.40;;
49384;SDS011;36795;45.028;38.968;2023-03-31T05:03:31;3.47;;;1.67;;
49384;SDS011;36795;45.028;38.968;2023-03-31T05:06:20;9.15;;;2.42;;
49384;SDS011;36795;45.028;38.968;2023-03-31T05:09:07;9.10;;;2.17;;
49384;SDS011;36795;45.028;38.968;2023-03-31T05:11:55;6.75;;;1.67;;
49384;SDS011;36795;45.028;38.968;2023-03-31T05:14:41;8.13;;;1.90;;
49384;SDS011;36795;45.028;38.968;2023-03-31T05:17:30;7.75;;;1.70;;
49384;SDS011;36795;45.028;38.968;2023-03-31T05:20:17;5.37;;;1.60;;
49384;SDS011;36795;45.028;38.968;2023-03-31T05:23:03;7.25;;;1.50;;
49384;SDS011;36795;45.028;38.968;2023-03-31T05:25:51;7.97;;;1.50;;
49384;SDS011;36795;45.028;38.968;2023-03-31T05:28:37;4.28;;;1.87;;
49384;SDS011;36795;45.028;38.968;2023-03-31T05:31:23;5.97;;;1.50;;
49384;SDS011;36795;45.028;38.968;2023-03-31T05:34:10;6.55;;;1.60;;
49384;SDS011;36795;45.028;38.968;2023-03-31T05:36:56;4.35;;;1.60;;
49384;SDS011;36795;45.028;38.968;2023-03-31T05:39:43;4.78;;;1.45;;
49384;SDS011;36795;45.028;38.968;2023-03-31T05:42:30;8.75;;;1.45;;
49384;SDS011;36795;45.028;38.968;2023-03-31T05:45:20;10.63;;;1.95;;
49384;SDS011;36795;45.028;38.968;2023-03-31T05:48:06;6.05;;;1.45;;
49384;SDS011;36795;45.028;38.968;2023-03-31T05:50:56;5.85;;;1.75;;
49384;SDS011;36795;45.028;38.968;2023-03-31T05:53:42;11.00;;;1.87;;
49384;SDS011;36795;45.028;38.968;2023-03-31T05:56:29;7.40;;;1.67;;
49384;SDS011;36795;45.028;38.968;2023-03-31T05:59:17;8.95;;;1.83;;
49384;SDS011;36795;45.028;38.968;2023-03-31T06:02:04;5.60;;;1.55;;
49384;SDS011;36795;45.028;38.968;2023-03-31T06:04:50;3.22;;;1.30;;
49384;SDS011;36795;45.028;38.968;2023-03-31T06:07:36;6.62;;;1.58;;
49384;SDS011;36795;45.028;38.968;2023-03-31T06:10:23;3.60;;;1.30;;
49384;SDS011;36795;45.028;38.968;2023-03-31T06:13:09;7.97;;;1.40;;
49384;SDS011;36795;45.028;38.968;2023-03-31T06:15:56;8.90;;;1.62;;
49384;SDS011;36795;45.028;38.968;2023-03-31T06:18:43;8.60;;;1.60;;
49384;SDS011;36795;45.028;38.968;2023-03-31T06:21:30;8.73;;;1.42;;
49384;SDS011;36795;45.028;38.968;2023-03-31T06:24:15;7.65;;;1.30;;
49384;SDS011;36795;45.028;38.968;2023-03-31T06:27:02;6.25;;;1.65;;
49384;SDS011;36795;45.028;38.968;2023-03-31T06:29:49;7.18;;;1.80;;
49384;SDS011;36795;45.028;38.968;2023-03-31T06:32:36;4.85;;;1.55;;
49384;SDS011;36795;45.028;38.968;2023-03-31T06:35:22;2.47;;;1.30;;
49384;SDS011;36795;45.028;38.968;2023-03-31T06:38:08;9.13;;;2.00;;
49384;SDS011;36795;45.028;38.968;2023-03-31T06:40:54;5.10;;;1.60;;
49384;SDS011;36795;45.028;38.968;2023-03-31T06:43:41;5.68;;;1.58;;
49384;SDS011;36795;45.028;38.968;2023-03-31T06:46:27;11.02;;;1.60;;
49384;SDS011;36795;45.028;38.968;2023-03-31T06:49:13;3.30;;;1.48;;
49384;SDS011;36795;45.028;38.968;2023-03-31T06:51:59;6.15;;;2.03;;
49384;SDS011;36795;45.028;38.968;2023-03-31T06:54:46;4.65;;;1.33;;
49384;SDS011;36795;45.028;38.968;2023-03-31T06:57:32;10.70;;;1.98;;
49384;SDS011;36795;45.028;38.968;2023-03-31T07:00:19;11.60;;;2.03;;
49384;SDS011;36795;45.028;38.968;2023-03-31T07:03:04;4.53;;;1.35;;
49384;SDS011;36795;45.028;38.968;2023-03-31T07:05:53;4.78;;;1.35;;
49384;SDS011;36795;45.028;38.968;2023-03-31T07:08:40;13.05;;;1.98;;
49384;SDS011;36795;45.028;38.968;2023-03-31T07:11:27;9.82;;;2.03;;
49384;SDS011;36795;45.028;38.968;2023-03-31T07:14:13;7.40;;;1.70;;
49384;SDS011;36795;45.028;38.968;2023-03-31T07:17:00;5.97;;;1.70;;
49384;SDS011;36795;45.028;38.968;2023-03-31T07:19:45;6.47;;;1.83;;
49384;SDS011;36795;45.028;38.968;2023-03-31T07:22:32;5.85;;;1.60;;
49384;SDS011;36795;45.028;38.968;2023-03-31T07:25:18;10.20;;;2.28;;
49384;SDS011;36795;45.028;38.968;2023-03-31T07:28:05;6.90;;;1.70;;
49384;SDS011;36795;45.028;38.968;2023-03-31T07:30:52;10.82;;;1.75;;
49384;SDS011;36795;45.028;38.968;2023-03-31T07:33:38;13.23;;;1.95;;
49384;SDS011;36795;45.028;38.968;2023-03-31T07:36:23;7.10;;;1.58;;
49384;SDS011;36795;45.028;38.968;2023-03-31T07:39:10;10.98;;;1.70;;
49384;SDS011;36795;45.028;38.968;2023-03-31T07:41:56;6.72;;;1.67;;
49384;SDS011;36795;45.028;38.968;2023-03-31T07:44:43;11.20;;;1.70;;
49384;SDS011;36795;45.028;38.968;2023-03-31T07:47:29;4.85;;;1.35;;
49384;SDS011;36795;45.028;38.968;2023-03-31T07:50:15;8.13;;;2.03;;
49384;SDS011;36795;45.028;38.968;2023-03-31T07:53:02;7.05;;;1.30;;
49384;SDS011;36795;45.028;38.968;2023-03-31T07:55:49;6.60;;;1.50;;
49384;SDS011;36795;45.028;38.968;2023-03-31T07:58:35;6.60;;;1.85;;
49384;SDS011;36795;45.028;38.968;2023-03-31T08:01:21;10.15;;;1.62;;
49384;SDS011;36795;45.028;38.968;2023-03-31T08:04:10;5.35;;;1.20;;
49384;SDS011;36795;45.028;38.968;2023-03-31T08:06:56;7.03;;;1.55;;
49384;SDS011;36795;45.028;38.968;2023-03-31T08:09:43;7.30;;;1.33;;
49384;SDS011;36795;45.028;38.968;2023-03-31T08:12:30;8.82;;;1.98;;
49384;SDS011;36795;45.028;38.968;2023-03-31T08:15:17;8.93;;;1.48;;
49384;SDS011;36795;45.028;38.968;2023-03-31T08:18:03;7.32;;;1.70;;
49384;SDS011;36795;45.028;38.968;2023-03-31T08:20:50;5.18;;;1.35;;
49384;SDS011;36795;45.028;38.968;2023-03-31T08:23:36;5.30;;;1.98;;
49384;SDS011;36795;45.028;38.968;2023-03-31T08:26:23;7.35;;;1.60;;
49384;SDS011;36795;45.028;38.968;2023-03-31T08:29:09;6.87;;;1.40;;
49384;SDS011;36795;45.028;38.968;2023-03-31T08:31:55;7.80;;;1.52;;
49384;SDS011;36795;45.028;38.968;2023-03-31T08:34:41;12.55;;;2.65;;
49384;SDS011;36795;45.028;38.968;2023-03-31T08:37:28;4.60;;;1.37;;
49384;SDS011;36795;45.028;38.968;2023-03-31T08:40:19;9.15;;;1.58;;
49384;SDS011;36795;45.028;38.968;2023-03-31T08:43:17;6.40;;;1.40;;
49384;SDS011;36795;45.028;38.968;2023-03-31T08:46:11;5.75;;;1.70;;
49384;SDS011;36795;45.028;38.968;2023-03-31T08:48:58;5.53;;;1.33;;
49384;SDS011;36795;45.028;38.968;2023-03-31T08:51:47;3.95;;;1.45;;
49384;SDS011;36795;45.028;38.968;2023-03-31T08:54:38;8.48;;;1.80;;
49384;SDS011;36795;45.028;38.968;2023-03-31T08:57:26;4.95;;;1.50;;
49384;SDS011;36795;45.028;38.968;2023-03-31T09:00:14;6.20;;;1.40;;
49384;SDS011;36795;45.028;38.968;2023-03-31T09:03:13;6.40;;;1.52;;
49384;SDS011;36795;45.028;38.968;2023-03-31T09:06:06;3.83;;;1.10;;
49384;SDS011;36795;45.028;38.968;2023-03-31T09:08:54;5.40;;;1.55;;
49384;SDS011;36795;45.028;38.968;2023-03-31T09:11:46;13.48;;;1.50;;
49384;SDS011;36795;45.028;38.968;2023-03-31T09:17:56;10.30;;;2.05;;
49384;SDS011;36795;45.028;38.968;2023-03-31T09:20:48;5.40;;;1.30;;
49384;SDS011;36795;45.028;38.968;2023-03-31T09:23:41;9.13;;;1.50;;
49384;SDS011;36795;45.028;38.968;2023-03-31T09:26:42;9.23;;;1.58;;
49384;SDS011;36795;45.028;38.968;2023-03-31T09:29:41;13.07;;;1.60;;
49384;SDS011;36795;45.028;38.968;2023-03-31T09:32:29;6.68;;;1.37;;
49384;SDS011;36795;45.028;38.968;2023-03-31T09:35:17;5.12;;;1.50;;
49384;SDS011;36795;45.028;38.968;2023-03-31T09:38:05;5.45;;;1.60;;
49384;SDS011;36795;45.028;38.968;2023-03-31T09:40:51;5.78;;;1.30;;
49384;SDS011;36795;45.028;38.968;2023-03-31T09:43:37;10.57;;;1.50;;
49384;SDS011;36795;45.028;38.968;2023-03-31T09:46:27;4.15;;;1.17;;
49384;SDS011;36795;45.028;38.968;2023-03-31T09:49:16;7.05;;;1.37;;
49384;SDS011;36795;45.028;38.968;2023-03-31T09:55:00;6.87;;;1.60;;
49384;SDS011;36795;45.028;38.968;2023-03-31T09:57:47;9.70;;;2.12;;
49384;SDS011;36795;45.028;38.968;2023-03-31T10:00:35;4.68;;;1.15;;
49384;SDS011;36795;45.028;38.968;2023-03-31T10:03:23;7.03;;;2.10;;
49384;SDS011;36795;45.028;38.968;2023-03-31T10:06:13;9.98;;;1.52;;
49384;SDS011;36795;45.028;38.968;2023-03-31T10:09:00;8.32;;;1.60;;
49384;SDS011;36795;45.028;38.968;2023-03-31T10:11:54;8.98;;;1.67;;
49384;SDS011;36795;45.028;38.968;2023-03-31T10:14:45;10.63;;;1.80;;
49384;SDS011;36795;45.028;38.968;2023-03-31T10:17:33;5.30;;;1.40;;
49384;SDS011;36795;45.028;38.968;2023-03-31T10:23:29;8.13;;;1.80;;
49384;SDS011;36795;45.028;38.968;2023-03-31T10:26:24;10.48;;;1.87;;
49384;SDS011;36795;45.028;38.968;2023-03-31T10:29:18;9.88;;;1.75;;
49384;SDS011;36795;45.028;38.968;2023-03-31T10:34:57;9.15;;;2.30;;
49384;SDS011;36795;45.028;38.968;2023-03-31T10:37:55;6.18;;;1.70;;
49384;SDS011;36795;45.028;38.968;2023-03-31T10:40:48;8.30;;;1.50;;
49384;SDS011;36795;45.028;38.968;2023-03-31T10:43:39;8.25;;;1.70;;
49384;SDS011;36795;45.028;38.968;2023-03-31T10:46:41;8.68;;;2.10;;
49384;SDS011;36795;45.028;38.968;2023-03-31T10:49:28;6.07;;;2.08;;
49384;SDS011;36795;45.028;38.968;2023-03-31T10:52:22;4.05;;;1.30;;
49384;SDS011;36795;45.028;38.968;2023-03-31T10:55:11;5.50;;;1.60;;
49384;SDS011;36795;45.028;38.968;2023-03-31T10:58:00;3.87;;;1.37;;
49384;SDS011;36795;45.028;38.968;2023-03-31T11:01:33;5.07;;;1.40;;
49384;SDS011;36795;45.028;38.968;2023-03-31T11:04:04;4.03;;;1.30;;
49384;SDS011;36795;45.028;38.968;2023-03-31T11:16:10;4.60;;;1.50;;
49384;SDS011;36795;45.028;38.968;2023-03-31T11:40:04;6.50;;;1.60;;
49384;SDS011;36795;45.028;38.968;2023-03-31T11:46:07;10.50;;;1.60;;
49384;SDS011;36795;45.028;38.968;2023-03-31T11:48:57;9.75;;;1.73;;
49384;SDS011;36795;45.028;38.968;2023-03-31T11:51:50;7.75;;;1.73;;
49384;SDS011;36795;45.028;38.968;2023-03-31T11:54:39;7.45;;;1.83;;
49384;SDS011;36795;45.028;38.968;2023-03-31T12:00:47;9.85;;;1.80;;
49384;SDS011;36795;45.028;38.968;2023-03-31T12:03:56;8.00;;;2.05;;
49384;SDS011;36795;45.028;38.968;2023-03-31T12:06:44;9.73;;;2.10;;
49384;SDS011;36795;45.028;38.968;2023-03-31T12:09:39;4.93;;;1.40;;
49384;SDS011;36795;45.028;38.968;2023-03-31T12:12:28;7.20;;;1.40;;
49384;SDS011;36795;45.028;38.968;2023-03-31T12:15:24;13.70;;;1.90;;
49384;SDS011;36795;45.028;38.968;2023-03-31T12:18:16;6.65;;;1.40;;
49384;SDS011;36795;45.028;38.968;2023-03-31T12:21:04;5.32;;;1.65;;
49384;SDS011;36795;45.028;38.968;2023-03-31T12:23:55;9.50;;;1.67;;
49384;SDS011;36795;45.028;38.968;2023-03-31T12:27:02;8.05;;;1.55;;
49384;SDS011;36795;45.028;38.968;2023-03-31T12:29:55;9.25;;;1.40;;
49384;SDS011;36795;45.028;38.968;2023-03-31T12:32:54;7.47;;;1.40;;
49384;SDS011;36795;45.028;38.968;2023-03-31T12:35:55;8.15;;;1.60;;
49384;SDS011;36795;45.028;38.968;2023-03-31T12:38:52;6.57;;;1.60;;
49384;SDS011;36795;45.028;38.968;2023-03-31T12:44:35;10.18;;;1.65;;
49384;SDS011;36795;45.028;38.968;2023-03-31T12:47:33;10.88;;;2.08;;
49384;SDS011;36795;45.028;38.968;2023-03-31T12:50:40;8.27;;;1.95;;
49384;SDS011;36795;45.028;38.968;2023-03-31T12:56:18;7.60;;;1.55;;
49384;SDS011;36795;45.028;38.968;2023-03-31T12:59:17;11.75;;;2.28;;
49384;SDS011;36795;45.028;38.968;2023-03-31T13:14:22;12.02;;;1.70;;
49384;SDS011;36795;45.028;38.968;2023-03-31T13:23:04;7.35;;;1.40;;
49384;SDS011;36795;45.028;38.968;2023-03-31T13:25:53;6.87;;;1.48;;
49384;SDS011;36795;45.028;38.968;2023-03-31T13:28:40;4.07;;;1.45;;
49384;SDS011;36795;45.028;38.968;2023-03-31T13:31:36;10.27;;;1.30;;
49384;SDS011;36795;45.028;38.968;2023-03-31T13:34:45;5.82;;;1.42;;
49384;SDS011;36795;45.028;38.968;2023-03-31T13:49:15;4.53;;;1.35;;
49384;SDS011;36795;45.028;38.968;2023-03-31T13:52:10;9.38;;;1.60;;
49384;SDS011;36795;45.028;38.968;2023-03-31T13:57:57;6.45;;;1.48;;
49384;SDS011;36795;45.028;38.968;2023-03-31T14:06:36;7.62;;;1.60;;
49384;SDS011;36795;45.028;38.968;2023-03-31T14:12:28;8.48;;;1.85;;
49384;SDS011;36795;45.028;38.968;2023-03-31T14:15:19;7.78;;;2.00;;
49384;SDS011;36795;45.028;38.968;2023-03-31T14:18:06;12.70;;;1.73;;
49384;SDS011;36795;45.028;38.968;2023-03-31T14:24:04;8.13;;;1.67;;
49384;SDS011;36795;45.028;38.968;2023-03-31T14:35:34;7.65;;;1.80;;
49384;SDS011;36795;45.028;38.968;2023-03-31T14:38:22;11.32;;;2.00;;
49384;SDS011;36795;45.028;38.968;2023-03-31T14:41:18;10.18;;;2.03;;
49384;SDS011;36795;45.028;38.968;2023-03-31T14:47:03;9.18;;;1.98;;
49384;SDS011;36795;45.028;38.968;2023-03-31T14:50:04;9.93;;;1.77;;
49384;SDS011;36795;45.028;38.968;2023-03-31T14:52:52;8.25;;;2.20;;
49384;SDS011;36795;45.028;38.968;2023-03-31T14:55:39;10.60;;;2.00;;
49384;SDS011;36795;45.028;38.968;2023-03-31T14:58:29;12.07;;;2.20;;
49384;SDS011;36795;45.028;38.968;2023-03-31T15:01:26;10.15;;;1.73;;
49384;SDS011;36795;45.028;38.968;2023-03-31T15:04:14;10.20;;;2.28;;
49384;SDS011;36795;45.028;38.968;2023-03-31T15:07:02;13.05;;;2.17;;
49384;SDS011;36795;45.028;38.968;2023-03-31T15:09:49;7.50;;;2.00;;
49384;SDS011;36795;45.028;38.968;2023-03-31T15:12:36;10.40;;;2.33;;
49384;SDS011;36795;45.028;38.968;2023-03-31T15:15:22;8.35;;;2.45;;
49384;SDS011;36795;45.028;38.968;2023-03-31T15:18:13;9.43;;;2.25;;
49384;SDS011;36795;45.028;38.968;2023-03-31T15:21:00;8.18;;;2.20;;
49384;SDS011;36795;45.028;38.968;2023-03-31T15:23:49;8.90;;;2.05;;
49384;SDS011;36795;45.028;38.968;2023-03-31T15:26:38;19.37;;;2.70;;
49384;SDS011;36795;45.028;38.968;2023-03-31T15:29:30;8.70;;;2.10;;
49384;SDS011;36795;45.028;38.968;2023-03-31T15:32:26;15.40;;;2.50;;
49384;SDS011;36795;45.028;38.968;2023-03-31T15:35:21;8.20;;;1.87;;
49384;SDS011;36795;45.028;38.968;2023-03-31T15:38:08;10.40;;;2.10;;
49384;SDS011;36795;45.028;38.968;2023-03-31T15:40:56;11.15;;;2.58;;
49384;SDS011;36795;45.028;38.968;2023-03-31T15:49:28;16.65;;;3.28;;
49384;SDS011;36795;45.028;38.968;2023-03-31T15:52:31;17.08;;;3.17;;
49384;SDS011;36795;45.028;38.968;2023-03-31T15:55:27;12.37;;;2.70;;
49384;SDS011;36795;45.028;38.968;2023-03-31T15:58:14;14.55;;;2.85;;
49384;SDS011;36795;45.028;38.968;2023-03-31T16:01:04;13.93;;;5.03;;
49384;SDS011;36795;45.028;38.968;2023-03-31T16:03:52;14.25;;;2.95;;
49384;SDS011;36795;45.028;38.968;2023-03-31T16:06:43;13.98;;;2.65;;
49384;SDS011;36795;45.028;38.968;2023-03-31T16:09:38;14.77;;;2.90;;
49384;SDS011;36795;45.028;38.968;2023-03-31T16:13:09;15.15;;;2.80;;
49384;SDS011;36795;45.028;38.968;2023-03-31T16:15:41;11.90;;;2.40;;
49384;SDS011;36795;45.028;38.968;2023-03-31T16:18:38;10.18;;;2.30;;
49384;SDS011;36795;45.028;38.968;2023-03-31T16:21:27;16.92;;;3.72;;
49384;SDS011;36795;45.028;38.968;2023-03-31T16:24:13;9.80;;;2.08;;
49384;SDS011;36795;45.028;38.968;2023-03-31T16:27:01;7.05;;;2.10;;
49384;SDS011;36795;45.028;38.968;2023-03-31T16:29:50;19.42;;;3.58;;
49384;SDS011;36795;45.028;38.968;2023-03-31T16:35:46;14.15;;;3.08;;
49384;SDS011;36795;45.028;38.968;2023-03-31T16:38:34;13.38;;;2.97;;
49384;SDS011;36795;45.028;38.968;2023-03-31T16:41:20;13.85;;;2.60;;
49384;SDS011;36795;45.028;38.968;2023-03-31T16:44:11;14.30;;;2.97;;
49384;SDS011;36795;45.028;38.968;2023-03-31T16:46:57;13.43;;;3.00;;
49384;SDS011;36795;45.028;38.968;2023-03-31T16:49:44;13.57;;;3.00;;
49384;SDS011;36795;45.028;38.968;2023-03-31T16:52:30;9.38;;;2.72;;
49384;SDS011;36795;45.028;38.968;2023-03-31T16:55:16;17.85;;;3.40;;
49384;SDS011;36795;45.028;38.968;2023-03-31T16:58:02;8.65;;;2.50;;
49384;SDS011;36795;45.028;38.968;2023-03-31T17:00:49;9.20;;;2.53;;
49384;SDS011;36795;45.028;38.968;2023-03-31T17:03:36;9.07;;;3.03;;
49384;SDS011;36795;45.028;38.968;2023-03-31T17:06:25;12.27;;;3.10;;
49384;SDS011;36795;45.028;38.968;2023-03-31T17:09:11;12.60;;;2.95;;
49384;SDS011;36795;45.028;38.968;2023-03-31T17:11:58;13.35;;;3.45;;
49384;SDS011;36795;45.028;38.968;2023-03-31T17:14:45;12.48;;;3.15;;
49384;SDS011;36795;45.028;38.968;2023-03-31T17:17:32;12.73;;;2.90;;
49384;SDS011;36795;45.028;38.968;2023-03-31T17:20:18;16.42;;;2.80;;
49384;SDS011;36795;45.028;38.968;2023-03-31T17:23:04;13.35;;;3.22;;
49384;SDS011;36795;45.028;38.968;2023-03-31T17:25:52;15.70;;;3.60;;
49384;SDS011;36795;45.028;38.968;2023-03-31T17:28:38;11.75;;;2.83;;
49384;SDS011;36795;45.028;38.968;2023-03-31T17:31:24;12.13;;;2.80;;
49384;SDS011;36795;45.028;38.968;2023-03-31T17:34:11;8.77;;;2.47;;
49384;SDS011;36795;45.028;38.968;2023-03-31T17:36:56;15.52;;;3.28;;
49384;SDS011;36795;45.028;38.968;2023-03-31T17:39:43;16.25;;;3.03;;
49384;SDS011;36795;45.028;38.968;2023-03-31T17:42:29;14.98;;;2.92;;
49384;SDS011;36795;45.028;38.968;2023-03-31T17:45:16;9.18;;;2.42;;
49384;SDS011;36795;45.028;38.968;2023-03-31T17:48:02;16.83;;;3.17;;
49384;SDS011;36795;45.028;38.968;2023-03-31T17:50:50;13.23;;;3.28;;
49384;SDS011;36795;45.028;38.968;2023-03-31T17:53:37;12.57;;;3.08;;
49384;SDS011;36795;45.028;38.968;2023-03-31T17:56:26;12.73;;;2.95;;
49384;SDS011;36795;45.028;38.968;2023-03-31T17:59:12;10.00;;;2.90;;
49384;SDS011;36795;45.028;38.968;2023-03-31T18:01:59;11.23;;;2.75;;
49384;SDS011;36795;45.028;38.968;2023-03-31T18:04:45;8.88;;;2.58;;
49384;SDS011;36795;45.028;38.968;2023-03-31T18:07:35;8.63;;;2.95;;
49384;SDS011;36795;45.028;38.968;2023-03-31T18:10:22;8.48;;;2.47;;
49384;SDS011;36795;45.028;38.968;2023-03-31T18:13:08;11.40;;;2.53;;
49384;SDS011;36795;45.028;38.968;2023-03-31T18:15:55;10.00;;;2.42;;
49384;SDS011;36795;45.028;38.968;2023-03-31T18:18:41;13.70;;;2.75;;
49384;SDS011;36795;45.028;38.968;2023-03-31T18:21:28;8.25;;;2.40;;
49384;SDS011;36795;45.028;38.968;2023-03-31T18:24:14;14.68;;;2.62;;
49384;SDS011;36795;45.028;38.968;2023-03-31T18:27:03;14.25;;;2.95;;
49384;SDS011;36795;45.028;38.968;2023-03-31T18:29:49;12.77;;;3.33;;
49384;SDS011;36795;45.028;38.968;2023-03-31T18:32:36;15.50;;;3.12;;
49384;SDS011;36795;45.028;38.968;2023-03-31T18:35:22;12.13;;;3.10;;
49384;SDS011;36795;45.028;38.968;2023-03-31T18:38:08;9.15;;;2.72;;
49384;SDS011;36795;45.028;38.968;2023-03-31T18:40:54;15.93;;;2.85;;
49384;SDS011;36795;45.028;38.968;2023-03-31T18:43:41;9.77;;;3.05;;
49384;SDS011;36795;45.028;38.968;2023-03-31T18:46:28;13.40;;;2.72;;
49384;SDS011;36795;45.028;38.968;2023-03-31T18:49:14;11.00;;;2.75;;
49384;SDS011;36795;45.028;38.968;2023-03-31T18:52:00;11.35;;;2.90;;
49384;SDS011;36795;45.028;38.968;2023-03-31T18:54:49;19.83;;;3.87;;
49384;SDS011;36795;45.028;38.968;2023-03-31T18:57:35;13.95;;;2.90;;
49384;SDS011;36795;45.028;38.968;2023-03-31T19:00:22;16.15;;;3.60;;
49384;SDS011;36795;45.028;38.968;2023-03-31T19:03:08;16.27;;;3.10;;
49384;SDS011;36795;45.028;38.968;2023-03-31T19:06:04;12.02;;;3.28;;
49384;SDS011;36795;45.028;38.968;2023-03-31T19:08:56;14.10;;;3.65;;
49384;SDS011;36795;45.028;38.968;2023-03-31T19:11:44;18.55;;;4.05;;
49384;SDS011;36795;45.028;38.968;2023-03-31T19:14:30;19.37;;;4.43;;
49384;SDS011;36795;45.028;38.968;2023-03-31T19:17:20;19.55;;;4.93;;
49384;SDS011;36795;45.028;38.968;2023-03-31T19:20:07;14.23;;;3.10;;